createdAt,value
2022-09-14T00:01:30.101Z,100297.97
2022-09-14T00:03:59.715Z,100298.81
2022-09-14T00:06:28.619Z,100298.81
2022-09-14T00:09:00.719Z,100306.09
2022-09-14T00:11:31.088Z,100303.63
2022-09-14T00:14:00.289Z,100298.38
2022-09-14T00:16:31.460Z,100302.72
2022-09-14T00:19:01.364Z,100300.97
2022-09-14T00:21:29.685Z,100302.78
2022-09-14T00:23:58.781Z,100305.53
2022-09-14T00:26:26.759Z,100311.03
2022-09-14T00:28:58.010Z,100305.94
2022-09-14T00:31:27.054Z,100301.53
2022-09-14T00:33:55.148Z,100294.53
2022-09-14T00:36:24.905Z,100289.25
2022-09-14T00:38:53.296Z,100292.75
2022-09-14T00:41:24.993Z,100274.16
2022-09-14T00:43:57.825Z,100279.41
2022-09-14T00:46:27.594Z,100273.25
2022-09-14T00:48:57.199Z,100260.88
2022-09-14T00:51:26.148Z,100255.56
2022-09-14T00:53:55.270Z,100271.56
2022-09-14T00:56:24.487Z,100273.41
2022-09-14T00:58:54.384Z,100268.06
2022-09-14T01:01:22.227Z,100268.38
2022-09-14T01:03:50.007Z,100270.97
2022-09-14T01:06:26.208Z,100267.34
2022-09-14T01:09:14.259Z,100267.28
2022-09-14T01:11:56.570Z,100262.88
2022-09-14T01:14:32.939Z,100257.56
2022-09-14T01:17:21.143Z,100261.97
2022-09-14T01:20:14.212Z,100255.81
2022-09-14T01:22:49.091Z,100246.00
2022-09-14T01:25:32.091Z,100257.56
2022-09-14T01:28:04.358Z,100255.81
2022-09-14T01:30:36.214Z,100261.28
2022-09-14T01:33:10.182Z,100264.88
2022-09-14T01:35:44.758Z,100260.47
2022-09-14T01:38:20.173Z,100263.16
2022-09-14T01:40:50.197Z,100266.78
2022-09-14T01:43:26.003Z,100268.63
2022-09-14T01:45:57.042Z,100272.16
2022-09-14T01:48:31.694Z,100262.44
2022-09-14T01:51:05.261Z,100261.56
2022-09-14T01:53:38.061Z,100257.22
2022-09-14T01:56:10.486Z,100251.13
2022-09-14T01:58:45.200Z,100261.84
2022-09-14T02:01:18.226Z,100254.78
2022-09-14T02:03:50.911Z,100244.13
2022-09-14T02:06:23.961Z,100235.34
2022-09-14T02:08:53.095Z,100236.25
2022-09-14T02:11:20.901Z,100236.41
2022-09-14T02:13:50.148Z,100241.78
2022-09-14T02:16:18.679Z,100235.59
2022-09-14T02:18:46.614Z,100231.19
2022-09-14T02:21:17.984Z,100230.41
2022-09-14T02:23:45.854Z,100234.00
2022-09-14T02:26:13.930Z,100228.81
2022-09-14T02:28:41.661Z,100238.66
2022-09-14T02:31:27.955Z,100237.88
2022-09-14T02:34:04.250Z,100240.63
2022-09-14T02:36:42.750Z,100236.28
2022-09-14T02:39:18.568Z,100238.28
2022-09-14T02:41:51.509Z,100234.81
2022-09-14T02:44:27.509Z,100230.50
2022-09-14T02:47:02.170Z,100234.22
2022-09-14T02:49:38.946Z,100239.63
2022-09-14T02:52:13.970Z,100235.22
2022-09-14T02:54:47.912Z,100231.75
2022-09-14T02:57:15.810Z,100224.69
2022-09-14T02:59:43.736Z,100226.56
2022-09-14T03:02:12.903Z,100216.09
2022-09-14T03:04:40.653Z,100213.50
2022-09-14T03:07:08.685Z,100210.03
2022-09-14T03:09:36.588Z,100210.84
2022-09-14T03:12:04.908Z,100215.28
2022-09-14T03:14:32.652Z,100221.59
2022-09-14T03:17:00.423Z,100221.59
2022-09-14T03:19:29.448Z,100230.56
2022-09-14T03:21:57.133Z,100232.34
2022-09-14T03:24:24.875Z,100226.22
2022-09-14T03:26:52.865Z,100226.16
2022-09-14T03:29:20.568Z,100206.66
2022-09-14T03:31:48.292Z,100207.50
2022-09-14T03:34:16.245Z,100197.00
2022-09-14T03:36:45.304Z,100195.31
2022-09-14T03:39:13.317Z,100182.94
2022-09-14T03:41:41.059Z,100190.06
2022-09-14T03:44:10.796Z,100184.75
2022-09-14T03:46:38.743Z,100175.94
2022-09-14T03:49:06.820Z,100179.53
2022-09-14T03:51:35.064Z,100181.41
2022-09-14T03:54:05.904Z,100174.34
2022-09-14T03:56:33.674Z,100174.50
2022-09-14T03:59:01.381Z,100169.16
2022-09-14T04:01:29.187Z,100162.19
2022-09-14T04:03:57.038Z,100168.44
2022-09-14T04:06:26.036Z,100164.19
2022-09-14T04:08:55.175Z,100171.25
2022-09-14T04:11:25.778Z,100167.78
2022-09-14T04:13:54.027Z,100156.34
2022-09-14T04:16:22.875Z,100153.81
2022-09-14T04:18:50.926Z,100162.72
2022-09-14T04:21:20.773Z,100163.66
2022-09-14T04:24:13.468Z,100173.50
2022-09-14T04:26:37.903Z,100174.50
2022-09-14T04:29:06.015Z,100175.50
2022-09-14T04:31:34.252Z,100173.88
2022-09-14T04:34:01.984Z,100167.72
2022-09-14T04:36:31.150Z,100175.63
2022-09-14T04:39:01.265Z,100163.25
2022-09-14T04:41:30.729Z,100179.22
2022-09-14T04:44:00.820Z,100173.09
2022-09-14T04:46:30.513Z,100167.88
2022-09-14T04:48:59.267Z,100171.44
2022-09-14T04:51:28.828Z,100178.47
2022-09-14T04:53:59.077Z,100184.66
2022-09-14T04:56:27.924Z,100181.94
2022-09-14T04:58:57.951Z,100177.38
2022-09-14T05:01:29.941Z,100177.22
2022-09-14T05:03:58.711Z,100171.78
2022-09-14T05:06:28.392Z,100170.78
2022-09-14T05:08:57.033Z,100172.44
2022-09-14T05:11:28.682Z,100160.84
2022-09-14T05:13:57.097Z,100171.47
2022-09-14T05:16:29.227Z,100162.44
2022-09-14T05:18:58.794Z,100164.25
2022-09-14T05:21:26.656Z,100168.53
2022-09-14T05:23:55.970Z,100168.31
2022-09-14T05:26:25.441Z,100165.44
2022-09-14T05:28:54.853Z,100170.47
2022-09-14T05:31:23.942Z,100171.81
2022-09-14T05:33:53.326Z,100172.44
2022-09-14T05:36:21.625Z,100165.97
2022-09-14T05:38:49.431Z,100163.00
2022-09-14T05:41:18.173Z,100162.81
2022-09-14T05:43:46.169Z,100162.59
2022-09-14T05:46:16.851Z,100166.84
2022-09-14T05:48:44.979Z,100164.13
2022-09-14T05:51:16.853Z,100155.41
2022-09-14T05:53:48.024Z,100152.09
2022-09-14T05:56:16.063Z,100157.94
2022-09-14T05:58:44.309Z,100161.13
2022-09-14T06:01:13.912Z,100156.97
2022-09-14T06:03:42.087Z,100162.56
2022-09-14T06:06:11.717Z,100159.50
2022-09-14T06:08:41.873Z,100159.09
2022-09-14T06:11:11.961Z,100157.25
2022-09-14T06:13:39.799Z,100152.41
2022-09-14T06:16:10.127Z,100152.91
2022-09-14T06:18:39.098Z,100151.63
2022-09-14T06:21:07.685Z,100136.19
2022-09-14T06:23:35.499Z,100133.19
2022-09-14T06:26:06.137Z,100139.00
2022-09-14T06:28:35.262Z,100132.28
2022-09-14T06:31:04.499Z,100130.88
2022-09-14T06:33:32.633Z,100135.91
2022-09-14T06:36:02.206Z,100135.66
2022-09-14T06:38:30.703Z,100138.13
2022-09-14T06:41:00.710Z,100135.28
2022-09-14T06:43:32.535Z,100142.03
2022-09-14T06:46:02.424Z,100136.53
2022-09-14T06:48:31.488Z,100137.06
2022-09-14T06:50:59.646Z,100135.88
2022-09-14T06:53:27.518Z,100130.53
2022-09-14T06:56:00.148Z,100145.00
2022-09-14T06:58:29.300Z,100134.81
2022-09-14T07:01:02.714Z,100137.53
2022-09-14T07:03:31.229Z,100140.28
2022-09-14T07:06:03.392Z,100143.97
2022-09-14T07:08:31.156Z,100139.53
2022-09-14T07:10:59.106Z,100140.28
2022-09-14T07:13:27.241Z,100145.50
2022-09-14T07:15:56.745Z,100138.16
2022-09-14T07:18:28.391Z,100141.38
2022-09-14T07:20:56.274Z,100147.19
2022-09-14T07:23:24.024Z,100140.66
2022-09-14T07:26:00.907Z,100140.94
2022-09-14T07:28:28.679Z,100145.00
2022-09-14T07:30:59.103Z,100132.63
2022-09-14T07:33:27.332Z,100128.66
2022-09-14T07:35:55.149Z,100118.81
2022-09-14T07:38:35.826Z,100127.28
2022-09-14T07:41:11.141Z,100130.38
2022-09-14T07:43:38.884Z,100124.69
2022-09-14T07:46:08.473Z,100126.25
2022-09-14T07:48:37.452Z,100124.50
2022-09-14T07:51:07.876Z,100127.59
2022-09-14T07:53:38.239Z,100133.19
2022-09-14T07:56:07.379Z,100129.84
2022-09-14T07:58:35.430Z,100133.53
2022-09-14T08:01:05.721Z,100133.34
2022-09-14T08:03:36.254Z,100128.38
2022-09-14T08:06:07.170Z,100114.03
2022-09-14T08:08:37.085Z,100117.13
2022-09-14T08:11:06.765Z,100115.03
2022-09-14T08:13:35.783Z,100114.84
2022-09-14T08:16:04.928Z,100116.69
2022-09-14T08:18:35.719Z,100116.03
2022-09-14T08:21:07.887Z,100113.28
2022-09-14T08:23:36.416Z,100108.25
2022-09-14T08:26:05.468Z,100116.81
2022-09-14T08:28:33.911Z,100097.63
2022-09-14T08:31:06.220Z,100104.00
2022-09-14T08:33:37.569Z,100107.72
2022-09-14T08:36:05.691Z,100110.25
2022-09-14T08:38:33.610Z,100109.78
2022-09-14T08:41:12.603Z,100108.06
2022-09-14T08:43:40.703Z,100105.59
2022-09-14T08:46:28.295Z,100101.06
2022-09-14T08:48:58.091Z,100102.25
2022-09-14T08:51:26.527Z,100100.13
2022-09-14T08:53:57.087Z,100097.97
2022-09-14T08:56:27.646Z,100092.94
2022-09-14T08:59:17.990Z,100095.59
2022-09-14T09:01:55.295Z,100094.84
2022-09-14T09:04:40.369Z,100088.81
2022-09-14T09:07:15.078Z,100099.91
2022-09-14T09:09:46.496Z,100103.03
2022-09-14T09:12:18.296Z,100098.31
2022-09-14T09:14:52.113Z,100086.47
2022-09-14T09:17:24.099Z,100077.66
2022-09-14T09:20:06.614Z,100080.56
2022-09-14T09:22:39.884Z,100083.25
2022-09-14T09:25:16.619Z,100069.06
2022-09-14T09:27:44.405Z,100072.28
2022-09-14T09:30:15.387Z,100073.13
2022-09-14T09:32:43.708Z,100070.53
2022-09-14T09:35:30.153Z,100071.94
2022-09-14T09:38:00.919Z,100071.41
2022-09-14T09:40:35.283Z,100074.00
2022-09-14T09:43:09.224Z,100069.69
2022-09-14T09:45:56.529Z,100068.19
2022-09-14T09:48:28.502Z,100061.84
2022-09-14T09:51:08.381Z,100066.78
2022-09-14T09:53:39.825Z,100061.91
2022-09-14T09:56:08.505Z,100066.97
2022-09-14T09:58:38.210Z,100060.28
2022-09-14T10:01:12.396Z,100065.38
2022-09-14T10:03:41.660Z,100072.38
2022-09-14T10:06:12.904Z,100065.56
2022-09-14T10:08:43.425Z,100066.09
2022-09-14T10:11:36.510Z,100058.69
2022-09-14T10:14:05.764Z,100057.50
2022-09-14T10:16:38.129Z,100048.13
2022-09-14T10:19:15.023Z,100043.75
2022-09-14T10:24:37.061Z,100046.97
2022-09-14T10:27:37.564Z,100049.72
2022-09-14T10:30:08.117Z,100035.44
2022-09-14T10:32:37.857Z,100030.22
2022-09-14T10:35:13.818Z,100027.78
2022-09-14T10:37:51.073Z,100023.72
2022-09-14T10:40:23.528Z,100028.63
2022-09-14T10:43:04.248Z,100021.41
2022-09-14T10:45:37.016Z,100023.38
2022-09-14T10:48:20.057Z,100025.50
2022-09-14T10:50:58.751Z,100027.69
2022-09-14T10:53:41.318Z,100019.09
2022-09-14T10:56:18.304Z,100025.25
2022-09-14T10:59:20.616Z,100017.53
2022-09-14T11:02:29.573Z,100017.31
2022-09-14T11:05:16.323Z,100023.53
2022-09-14T11:07:56.231Z,100018.91
2022-09-14T11:10:31.162Z,100019.06
2022-09-14T11:13:35.246Z,100017.50
2022-09-14T11:16:10.969Z,100016.00
2022-09-14T11:18:48.385Z,100006.47
2022-09-14T11:21:24.538Z,100006.44
2022-09-14T11:23:56.868Z,100011.25
2022-09-14T11:26:31.461Z,99998.34
2022-09-14T11:29:10.172Z,100004.88
2022-09-14T11:31:55.286Z,100004.59
2022-09-14T11:34:36.956Z,100013.03
2022-09-14T11:37:08.405Z,100005.44
2022-09-14T11:39:39.526Z,100006.91
2022-09-14T11:42:11.752Z,100006.38
2022-09-14T11:44:44.552Z,100006.53
2022-09-14T11:47:18.049Z,99997.47
2022-09-14T11:49:56.161Z,100010.25
2022-09-14T11:52:25.715Z,100001.66
2022-09-14T11:54:54.609Z,99997.59
2022-09-14T11:57:26.774Z,99998.56
2022-09-14T11:59:57.346Z,100002.00
2022-09-14T12:02:49.196Z,99996.91
2022-09-14T12:05:29.853Z,100001.31
2022-09-14T12:08:06.883Z,99997.25
2022-09-14T12:11:02.753Z,99998.59
2022-09-14T12:13:30.588Z,99997.84
2022-09-14T12:16:07.895Z,99996.63
2022-09-14T12:18:37.698Z,99997.84
2022-09-14T12:21:09.168Z,100009.59
2022-09-14T12:23:46.153Z,100009.06
2022-09-14T12:26:30.256Z,100010.41
2022-09-14T12:29:04.016Z,100011.19
2022-09-14T12:32:01.156Z,100008.84
2022-09-14T12:34:32.182Z,100003.03
2022-09-14T12:37:31.577Z,99999.25
2022-09-14T12:40:31.950Z,99987.75
2022-09-14T12:43:47.286Z,99985.94
2022-09-14T12:46:41.652Z,99985.22
2022-09-14T12:49:32.616Z,99989.13
2022-09-14T12:52:30.055Z,99988.84
2022-09-14T12:55:11.965Z,99990.50
2022-09-14T12:57:48.184Z,99979.72
2022-09-14T13:00:19.731Z,99984.91
2022-09-14T13:03:02.355Z,99983.19
2022-09-14T13:05:34.638Z,99979.00
2022-09-14T13:08:09.685Z,99974.56
2022-09-14T13:10:39.141Z,99968.91
2022-09-14T13:13:15.069Z,99968.41
2022-09-14T13:15:52.120Z,99960.91
2022-09-14T13:18:31.090Z,99970.19
2022-09-14T13:21:02.323Z,99965.91
2022-09-14T13:23:33.590Z,99958.56
2022-09-14T13:26:09.245Z,99961.34
2022-09-14T13:28:37.130Z,99960.28
2022-09-14T13:31:06.677Z,99954.44
2022-09-14T13:33:34.776Z,99955.31
2022-09-14T13:36:05.233Z,99949.50
2022-09-14T13:38:35.585Z,99957.31
2022-09-14T13:41:11.570Z,99952.16
2022-09-14T13:43:41.719Z,99955.09
2022-09-14T13:46:10.712Z,99948.94
2022-09-14T13:48:40.940Z,99952.59
2022-09-14T13:51:11.491Z,99945.53
2022-09-14T13:53:42.518Z,99953.13
2022-09-14T13:56:18.999Z,99938.69
2022-09-14T13:58:47.438Z,99938.41
2022-09-14T14:01:26.291Z,99937.28
2022-09-14T14:03:54.259Z,99930.28
2022-09-14T14:06:26.772Z,99929.53
2022-09-14T14:08:57.990Z,99924.47
2022-09-14T14:11:35.115Z,99926.22
2022-09-14T14:14:14.441Z,99918.84
2022-09-14T14:16:42.649Z,99921.00
2022-09-14T14:19:28.580Z,99916.06
2022-09-14T14:22:18.892Z,99912.41
2022-09-14T14:27:38.178Z,99906.72
2022-09-14T14:30:15.309Z,99898.31
2022-09-14T14:32:43.302Z,99900.47
2022-09-14T14:35:16.534Z,99893.78
2022-09-14T14:37:45.773Z,99900.66
2022-09-14T14:40:13.994Z,99896.16
2022-09-14T14:42:42.961Z,99886.47
2022-09-14T14:45:15.049Z,99887.78
2022-09-14T14:47:43.021Z,99884.81
2022-09-14T14:50:15.726Z,99881.59
2022-09-14T14:52:44.959Z,99882.25
2022-09-14T14:55:12.811Z,99868.97
2022-09-14T14:57:40.816Z,99876.72
2022-09-14T15:00:15.341Z,99874.97
2022-09-14T15:02:43.774Z,99875.72
2022-09-14T15:05:12.242Z,99881.84
2022-09-14T15:07:40.375Z,99883.16
2022-09-14T15:10:14.313Z,99880.13
2022-09-14T15:12:42.169Z,99868.44
2022-09-14T15:15:13.604Z,99874.44
2022-09-14T15:17:41.494Z,99874.53
2022-09-14T15:20:10.485Z,99867.88
2022-09-14T15:22:40.416Z,99863.94
2022-09-14T15:25:10.872Z,99867.56
2022-09-14T15:27:38.690Z,99871.66
2022-09-14T15:30:09.039Z,99874.56
2022-09-14T15:32:37.497Z,99876.47
2022-09-14T15:35:06.216Z,99875.94
2022-09-14T15:37:34.057Z,99871.97
2022-09-14T15:40:01.834Z,99869.72
2022-09-14T15:42:31.226Z,99859.28
2022-09-14T15:44:58.976Z,99863.59
2022-09-14T15:47:26.811Z,99854.47
2022-09-14T15:49:54.868Z,99861.22
2022-09-14T15:52:22.598Z,99864.88
2022-09-14T15:54:50.678Z,99865.50
2022-09-14T15:57:18.609Z,99872.06
2022-09-14T15:59:47.913Z,99871.94
2022-09-14T16:02:16.914Z,99867.38
2022-09-14T16:04:44.725Z,99862.09
2022-09-14T16:07:12.662Z,99865.16
2022-09-14T16:09:41.552Z,99868.84
2022-09-14T16:12:10.665Z,99857.47
2022-09-14T16:14:38.942Z,99861.56
2022-09-14T16:17:08.549Z,99861.28
2022-09-14T16:19:36.360Z,99864.84
2022-09-14T16:22:04.505Z,99862.81
2022-09-14T16:24:32.838Z,99860.47
2022-09-14T16:27:00.953Z,99859.84
2022-09-14T16:29:28.823Z,99858.34
2022-09-14T16:31:57.057Z,99852.22
2022-09-14T16:34:28.062Z,99858.03
2022-09-14T16:36:58.720Z,99851.34
2022-09-14T16:39:28.941Z,99851.56
2022-09-14T16:41:57.360Z,99851.75
2022-09-14T16:44:27.694Z,99853.94
2022-09-14T16:46:57.727Z,99852.44
2022-09-14T16:49:28.390Z,99858.56
2022-09-14T16:51:56.505Z,99856.09
2022-09-14T16:54:25.949Z,99856.94
2022-09-14T16:56:56.955Z,99857.78
2022-09-14T16:59:25.540Z,99858.13
2022-09-14T17:01:54.902Z,99859.19
2022-09-14T17:04:24.620Z,99861.25
2022-09-14T17:06:56.119Z,99849.19
2022-09-14T17:09:25.869Z,99855.22
2022-09-14T17:11:55.089Z,99844.16
2022-09-14T17:14:25.470Z,99853.56
2022-09-14T17:16:53.942Z,99861.25
2022-09-14T17:19:22.058Z,99853.75
2022-09-14T17:21:50.541Z,99850.78
2022-09-14T17:24:21.110Z,99852.16
2022-09-14T17:26:49.340Z,99851.78
2022-09-14T17:29:17.241Z,99848.75
2022-09-14T17:32:10.228Z,99844.88
2022-09-14T17:34:41.967Z,99839.16
2022-09-14T17:37:09.836Z,99839.66
2022-09-14T17:39:38.942Z,99848.00
2022-09-14T17:42:06.984Z,99836.81
2022-09-14T17:44:34.804Z,99831.88
2022-09-14T17:47:02.863Z,99831.28
2022-09-14T17:49:30.934Z,99821.00
2022-09-14T17:51:58.850Z,99828.34
2022-09-14T17:54:26.779Z,99837.44
2022-09-14T17:56:56.016Z,99840.50
2022-09-14T17:59:24.236Z,99841.84
2022-09-14T18:01:52.189Z,99837.59
2022-09-14T18:04:20.155Z,99842.22
2022-09-14T18:06:49.784Z,99856.84
2022-09-14T18:09:19.679Z,99847.38
2022-09-14T18:11:48.271Z,99853.09
2022-09-14T18:14:17.529Z,99849.81
2022-09-14T18:16:45.789Z,99844.69
2022-09-14T18:19:14.849Z,99852.03
2022-09-14T18:21:44.412Z,99861.19
2022-09-14T18:24:14.859Z,99856.13
2022-09-14T18:26:43.581Z,99863.66
2022-09-14T18:29:14.992Z,99863.84
2022-09-14T18:31:44.623Z,99870.44
2022-09-14T18:34:12.658Z,99870.88
2022-09-14T18:36:40.484Z,99874.34
2022-09-14T18:39:08.471Z,99885.13
2022-09-14T18:41:36.388Z,99873.47
2022-09-14T18:44:04.894Z,99884.16
2022-09-14T18:46:33.283Z,99884.16
2022-09-14T18:49:03.285Z,99886.94
2022-09-14T18:51:32.440Z,99895.84
2022-09-14T18:54:03.225Z,99897.72
2022-09-14T18:56:33.289Z,99892.38
2022-09-14T18:59:02.415Z,99889.88
2022-09-14T19:01:30.311Z,99896.19
2022-09-14T19:03:58.165Z,99894.44
2022-09-14T19:06:27.320Z,99890.06
2022-09-14T19:08:55.578Z,99889.28
2022-09-14T19:11:26.708Z,99897.50
2022-09-14T19:13:56.662Z,99894.91
2022-09-14T19:16:24.919Z,99892.44
2022-09-14T19:18:53.118Z,99896.31
2022-09-14T19:21:24.119Z,99892.03
2022-09-14T19:24:00.359Z,99893.91
2022-09-14T19:26:30.822Z,99890.72
2022-09-14T19:29:01.369Z,99897.97
2022-09-14T19:31:30.749Z,99892.88
2022-09-14T19:33:59.175Z,99892.97
2022-09-14T19:36:27.655Z,99885.13
2022-09-14T19:38:57.967Z,99890.63
2022-09-14T19:41:26.248Z,99891.66
2022-09-14T19:43:54.074Z,99898.91
2022-09-14T19:46:23.329Z,99902.63
2022-09-14T19:48:52.024Z,99909.84
2022-09-14T19:51:22.143Z,99903.91
2022-09-14T19:53:52.031Z,99905.03
2022-09-14T19:56:22.959Z,99896.34
2022-09-14T19:58:53.560Z,99905.28
2022-09-14T20:01:23.490Z,99908.06
2022-09-14T20:03:51.475Z,99906.31
2022-09-14T20:06:22.644Z,99904.59
2022-09-14T20:08:51.786Z,99909.94
2022-09-14T20:11:23.982Z,99915.47
2022-09-14T20:13:53.930Z,99924.19
2022-09-14T20:16:23.959Z,99916.16
2022-09-14T20:18:52.957Z,99922.34
2022-09-14T20:21:22.797Z,99922.34
2022-09-14T20:24:16.087Z,99924.84
2022-09-14T20:26:46.852Z,99913.22
2022-09-14T20:29:15.150Z,99914.25
2022-09-14T20:31:43.526Z,99923.16
2022-09-14T20:34:12.062Z,99923.91
2022-09-14T20:36:39.791Z,99916.84
2022-09-14T20:39:07.617Z,99919.78
2022-09-14T20:41:36.672Z,99915.47
2022-09-14T20:44:06.315Z,99919.94
2022-09-14T20:46:38.504Z,99917.44
2022-09-14T20:49:09.641Z,99926.41
2022-09-14T20:51:37.516Z,99917.50
2022-09-14T20:54:05.977Z,99922.09
2022-09-14T20:56:35.686Z,99919.59
2022-09-14T20:59:09.530Z,99923.03
2022-09-14T21:01:39.639Z,99917.50
2022-09-14T21:04:09.521Z,99919.06
2022-09-14T21:06:39.171Z,99917.84
2022-09-14T21:09:07.451Z,99930.97
2022-09-14T21:11:36.039Z,99920.97
2022-09-14T21:14:03.820Z,99919.78
2022-09-14T21:16:34.314Z,99927.63
2022-09-14T21:19:04.377Z,99920.47
2022-09-14T21:21:32.583Z,99931.84
2022-09-14T21:24:01.037Z,99925.38
2022-09-14T21:26:32.010Z,99923.56
2022-09-14T21:29:01.543Z,99932.38
2022-09-14T21:31:30.275Z,99929.59
2022-09-14T21:34:01.768Z,99934.06
2022-09-14T21:36:31.830Z,99936.72
2022-09-14T21:39:02.420Z,99941.13
2022-09-14T21:41:31.785Z,99940.19
2022-09-14T21:43:59.978Z,99942.97
2022-09-14T21:46:28.178Z,99939.41
2022-09-14T21:48:56.947Z,99938.41
2022-09-14T21:51:28.093Z,99942.88
2022-09-14T21:53:57.630Z,99935.03
2022-09-14T21:56:27.952Z,99940.63
2022-09-14T21:58:57.321Z,99937.28
2022-09-14T22:01:26.095Z,99930.38
2022-09-14T22:03:55.236Z,99934.25
2022-09-14T22:06:25.260Z,99936.22
2022-09-14T22:08:55.027Z,99939.00
2022-09-14T22:11:25.074Z,99927.50
2022-09-14T22:13:56.980Z,99934.59
2022-09-14T22:16:26.615Z,99928.41
2022-09-14T22:18:55.916Z,99930.88
2022-09-14T22:21:24.989Z,99926.66
2022-09-14T22:23:56.738Z,99925.19
2022-09-14T22:26:25.688Z,99929.16
2022-09-14T22:28:54.489Z,99928.56
2022-09-14T22:31:23.861Z,99928.88
2022-09-14T22:33:52.108Z,99927.16
2022-09-14T22:36:19.976Z,99927.50
2022-09-14T22:38:47.868Z,99927.50
2022-09-14T22:41:19.593Z,99923.09
2022-09-14T22:43:47.888Z,99927.50
2022-09-14T22:46:17.076Z,99921.22
2022-09-14T22:48:45.373Z,99926.81
2022-09-14T22:51:15.561Z,99920.41
2022-09-14T22:53:43.835Z,99925.41
2022-09-14T22:56:15.717Z,99919.38
2022-09-14T22:58:45.348Z,99914.81
2022-09-14T23:01:15.363Z,99923.16
2022-09-14T23:03:43.819Z,99920.63
2022-09-14T23:06:11.977Z,99927.69
2022-09-14T23:08:39.727Z,99919.69
2022-09-14T23:11:10.743Z,99915.47
2022-09-14T23:13:39.752Z,99923.47
2022-09-14T23:16:13.219Z,99912.63
2022-09-14T23:18:41.836Z,99907.47
2022-09-14T23:21:10.571Z,99905.91
2022-09-14T23:23:39.210Z,99914.25
2022-09-14T23:26:09.149Z,99907.50
2022-09-14T23:28:37.514Z,99909.38
2022-09-14T23:31:05.991Z,99910.50
2022-09-14T23:33:35.441Z,99912.66
2022-09-14T23:36:03.517Z,99917.28
2022-09-14T23:38:31.307Z,99911.88
2022-09-14T23:40:59.508Z,99914.88
2022-09-14T23:43:27.217Z,99923.81
2022-09-14T23:45:55.039Z,99914.25
2022-09-14T23:48:22.990Z,99915.22
2022-09-14T23:50:58.717Z,99924.13
2022-09-14T23:53:27.337Z,99923.34
2022-09-14T23:55:55.651Z,99919.09
2022-09-14T23:58:24.289Z,99916.53
